sensor_id;sensor_type;location;lat;lon;timestamp;P1;durP1;ratioP1;P2;durP2;ratioP2
7340;SDS011;6870;50.944;6.932;2022-08-05T00:01:29;2.83;;;2.40;;
7340;SDS011;6870;50.944;6.932;2022-08-05T00:04:13;3.50;;;2.87;;
7340;SDS011;6870;50.944;6.932;2022-08-05T00:06:44;3.87;;;2.30;;
7340;SDS011;6870;50.944;6.932;2022-08-05T00:09:17;3.27;;;2.13;;
7340;SDS011;6870;50.944;6.932;2022-08-05T00:11:45;3.47;;;2.10;;
7340;SDS011;6870;50.944;6.932;2022-08-05T00:14:25;3.17;;;2.17;;
7340;SDS011;6870;50.944;6.932;2022-08-05T00:16:57;5.07;;;2.07;;
7340;SDS011;6870;50.944;6.932;2022-08-05T00:19:28;2.67;;;2.10;;
7340;SDS011;6870;50.944;6.932;2022-08-05T00:22:00;2.50;;;2.30;;
7340;SDS011;6870;50.944;6.932;2022-08-05T00:24:29;3.17;;;2.83;;
7340;SDS011;6870;50.944;6.932;2022-08-05T00:26:59;3.13;;;2.60;;
7340;SDS011;6870;50.944;6.932;2022-08-05T00:29:35;3.60;;;2.60;;
7340;SDS011;6870;50.944;6.932;2022-08-05T00:32:03;1.90;;;1.77;;
7340;SDS011;6870;50.944;6.932;2022-08-05T00:34:39;3.73;;;2.20;;
7340;SDS011;6870;50.944;6.932;2022-08-05T00:37:30;3.83;;;2.53;;
7340;SDS011;6870;50.944;6.932;2022-08-05T00:40:18;2.50;;;2.20;;
7340;SDS011;6870;50.944;6.932;2022-08-05T00:42:54;2.13;;;1.77;;
7340;SDS011;6870;50.944;6.932;2022-08-05T00:45:24;2.80;;;2.40;;
7340;SDS011;6870;50.944;6.932;2022-08-05T00:48:08;3.60;;;2.40;;
7340;SDS011;6870;50.944;6.932;2022-08-05T00:50:38;4.13;;;2.33;;
7340;SDS011;6870;50.944;6.932;2022-08-05T00:53:12;3.27;;;2.30;;
7340;SDS011;6870;50.944;6.932;2022-08-05T00:56:02;2.47;;;2.10;;
7340;SDS011;6870;50.944;6.932;2022-08-05T00:58:33;3.37;;;2.70;;
7340;SDS011;6870;50.944;6.932;2022-08-05T01:01:02;3.13;;;2.10;;
7340;SDS011;6870;50.944;6.932;2022-08-05T01:03:34;2.63;;;2.00;;
7340;SDS011;6870;50.944;6.932;2022-08-05T01:06:02;3.63;;;2.00;;
7340;SDS011;6870;50.944;6.932;2022-08-05T01:08:37;2.93;;;1.83;;
7340;SDS011;6870;50.944;6.932;2022-08-05T01:11:11;3.97;;;2.10;;
7340;SDS011;6870;50.944;6.932;2022-08-05T01:14:00;3.50;;;2.37;;
7340;SDS011;6870;50.944;6.932;2022-08-05T01:16:37;6.53;;;2.93;;
7340;SDS011;6870;50.944;6.932;2022-08-05T01:19:15;2.07;;;1.70;;
7340;SDS011;6870;50.944;6.932;2022-08-05T01:22:15;2.97;;;2.30;;
7340;SDS011;6870;50.944;6.932;2022-08-05T01:24:58;2.63;;;1.70;;
7340;SDS011;6870;50.944;6.932;2022-08-05T01:28:16;4.83;;;2.33;;
7340;SDS011;6870;50.944;6.932;2022-08-05T01:30:53;2.40;;;1.80;;
7340;SDS011;6870;50.944;6.932;2022-08-05T01:33:30;3.80;;;2.20;;
7340;SDS011;6870;50.944;6.932;2022-08-05T01:36:02;2.50;;;2.10;;
7340;SDS011;6870;50.944;6.932;2022-08-05T01:38:41;5.33;;;2.50;;
7340;SDS011;6870;50.944;6.932;2022-08-05T01:41:16;2.20;;;1.87;;
7340;SDS011;6870;50.944;6.932;2022-08-05T01:43:52;5.13;;;1.80;;
7340;SDS011;6870;50.944;6.932;2022-08-05T01:46:22;2.60;;;2.40;;
7340;SDS011;6870;50.944;6.932;2022-08-05T01:49:09;2.73;;;1.60;;
7340;SDS011;6870;50.944;6.932;2022-08-05T01:51:51;2.93;;;2.10;;
7340;SDS011;6870;50.944;6.932;2022-08-05T01:54:25;2.40;;;1.97;;
7340;SDS011;6870;50.944;6.932;2022-08-05T01:57:11;4.30;;;2.33;;
7340;SDS011;6870;50.944;6.932;2022-08-05T02:00:07;3.50;;;2.17;;
7340;SDS011;6870;50.944;6.932;2022-08-05T02:02:38;2.10;;;1.90;;
7340;SDS011;6870;50.944;6.932;2022-08-05T02:05:20;3.67;;;1.73;;
7340;SDS011;6870;50.944;6.932;2022-08-05T02:07:54;1.60;;;1.50;;
7340;SDS011;6870;50.944;6.932;2022-08-05T02:10:27;2.93;;;2.03;;
7340;SDS011;6870;50.944;6.932;2022-08-05T02:13:05;3.60;;;2.20;;
7340;SDS011;6870;50.944;6.932;2022-08-05T02:16:19;4.17;;;2.40;;
7340;SDS011;6870;50.944;6.932;2022-08-05T02:18:53;3.27;;;2.40;;
7340;SDS011;6870;50.944;6.932;2022-08-05T02:21:27;2.07;;;1.60;;
7340;SDS011;6870;50.944;6.932;2022-08-05T02:24:13;3.27;;;2.20;;
7340;SDS011;6870;50.944;6.932;2022-08-05T02:26:49;2.07;;;1.73;;
7340;SDS011;6870;50.944;6.932;2022-08-05T02:29:23;6.20;;;1.90;;
7340;SDS011;6870;50.944;6.932;2022-08-05T02:32:16;3.60;;;2.17;;
7340;SDS011;6870;50.944;6.932;2022-08-05T02:34:55;2.40;;;2.00;;
7340;SDS011;6870;50.944;6.932;2022-08-05T02:37:39;3.10;;;2.17;;
7340;SDS011;6870;50.944;6.932;2022-08-05T02:40:18;1.67;;;1.40;;
7340;SDS011;6870;50.944;6.932;2022-08-05T02:42:49;3.43;;;2.23;;
7340;SDS011;6870;50.944;6.932;2022-08-05T02:45:19;1.63;;;1.53;;
7340;SDS011;6870;50.944;6.932;2022-08-05T02:47:52;2.30;;;2.10;;
7340;SDS011;6870;50.944;6.932;2022-08-05T02:50:37;2.93;;;1.90;;
7340;SDS011;6870;50.944;6.932;2022-08-05T02:53:09;2.83;;;1.70;;
7340;SDS011;6870;50.944;6.932;2022-08-05T02:55:45;2.10;;;1.90;;
7340;SDS011;6870;50.944;6.932;2022-08-05T02:58:25;2.07;;;1.87;;
7340;SDS011;6870;50.944;6.932;2022-08-05T03:00:56;2.30;;;1.80;;
7340;SDS011;6870;50.944;6.932;2022-08-05T03:03:29;2.00;;;1.90;;
7340;SDS011;6870;50.944;6.932;2022-08-05T03:06:20;2.27;;;1.97;;
7340;SDS011;6870;50.944;6.932;2022-08-05T03:09:10;2.53;;;2.03;;
7340;SDS011;6870;50.944;6.932;2022-08-05T03:11:52;2.33;;;2.13;;
7340;SDS011;6870;50.944;6.932;2022-08-05T03:14:23;2.67;;;2.33;;
7340;SDS011;6870;50.944;6.932;2022-08-05T03:16:52;2.27;;;1.73;;
7340;SDS011;6870;50.944;6.932;2022-08-05T03:19:22;2.53;;;1.90;;
7340;SDS011;6870;50.944;6.932;2022-08-05T03:22:01;2.10;;;1.70;;
7340;SDS011;6870;50.944;6.932;2022-08-05T03:24:44;3.40;;;2.50;;
7340;SDS011;6870;50.944;6.932;2022-08-05T03:27:17;2.50;;;1.80;;
7340;SDS011;6870;50.944;6.932;2022-08-05T03:29:46;2.17;;;1.60;;
7340;SDS011;6870;50.944;6.932;2022-08-05T03:32:34;2.33;;;1.90;;
7340;SDS011;6870;50.944;6.932;2022-08-05T03:35:04;2.23;;;1.97;;
7340;SDS011;6870;50.944;6.932;2022-08-05T03:37:34;3.10;;;1.70;;
7340;SDS011;6870;50.944;6.932;2022-08-05T03:40:11;1.67;;;1.57;;
7340;SDS011;6870;50.944;6.932;2022-08-05T03:42:49;2.77;;;1.97;;
7340;SDS011;6870;50.944;6.932;2022-08-05T03:45:18;7.23;;;1.53;;
7340;SDS011;6870;50.944;6.932;2022-08-05T03:47:49;2.80;;;1.80;;
7340;SDS011;6870;50.944;6.932;2022-08-05T03:50:24;2.57;;;1.83;;
7340;SDS011;6870;50.944;6.932;2022-08-05T03:52:57;2.37;;;2.03;;
7340;SDS011;6870;50.944;6.932;2022-08-05T03:55:56;3.97;;;1.97;;
7340;SDS011;6870;50.944;6.932;2022-08-05T03:58:38;2.20;;;1.60;;
7340;SDS011;6870;50.944;6.932;2022-08-05T04:01:10;3.03;;;2.07;;
7340;SDS011;6870;50.944;6.932;2022-08-05T04:03:46;2.60;;;1.70;;
7340;SDS011;6870;50.944;6.932;2022-08-05T04:06:37;2.17;;;1.63;;
7340;SDS011;6870;50.944;6.932;2022-08-05T04:09:13;2.17;;;1.70;;
7340;SDS011;6870;50.944;6.932;2022-08-05T04:11:51;3.43;;;2.00;;
7340;SDS011;6870;50.944;6.932;2022-08-05T04:14:22;2.47;;;1.70;;
7340;SDS011;6870;50.944;6.932;2022-08-05T04:16:56;4.97;;;2.30;;
7340;SDS011;6870;50.944;6.932;2022-08-05T04:19:28;3.07;;;1.87;;
7340;SDS011;6870;50.944;6.932;2022-08-05T04:21:57;2.23;;;1.90;;
7340;SDS011;6870;50.944;6.932;2022-08-05T04:24:37;4.50;;;1.60;;
7340;SDS011;6870;50.944;6.932;2022-08-05T04:27:10;2.37;;;1.93;;
7340;SDS011;6870;50.944;6.932;2022-08-05T04:29:40;2.20;;;1.63;;
7340;SDS011;6870;50.944;6.932;2022-08-05T04:32:09;3.03;;;1.67;;
7340;SDS011;6870;50.944;6.932;2022-08-05T04:34:37;2.37;;;1.70;;
7340;SDS011;6870;50.944;6.932;2022-08-05T04:37:09;3.00;;;1.80;;
7340;SDS011;6870;50.944;6.932;2022-08-05T04:39:38;2.37;;;1.57;;
7340;SDS011;6870;50.944;6.932;2022-08-05T04:42:06;2.73;;;1.90;;
7340;SDS011;6870;50.944;6.932;2022-08-05T04:44:36;2.67;;;1.90;;
7340;SDS011;6870;50.944;6.932;2022-08-05T04:47:05;1.50;;;1.40;;
7340;SDS011;6870;50.944;6.932;2022-08-05T04:49:35;2.20;;;1.77;;
7340;SDS011;6870;50.944;6.932;2022-08-05T04:52:26;2.60;;;2.37;;
7340;SDS011;6870;50.944;6.932;2022-08-05T04:54:58;2.67;;;1.80;;
7340;SDS011;6870;50.944;6.932;2022-08-05T04:57:42;3.87;;;2.03;;
7340;SDS011;6870;50.944;6.932;2022-08-05T05:00:16;1.97;;;1.77;;
7340;SDS011;6870;50.944;6.932;2022-08-05T05:02:48;1.90;;;1.40;;
7340;SDS011;6870;50.944;6.932;2022-08-05T05:05:17;3.77;;;1.77;;
7340;SDS011;6870;50.944;6.932;2022-08-05T05:07:57;2.23;;;2.03;;
7340;SDS011;6870;50.944;6.932;2022-08-05T05:10:28;3.47;;;1.97;;
7340;SDS011;6870;50.944;6.932;2022-08-05T05:12:58;1.70;;;1.50;;
7340;SDS011;6870;50.944;6.932;2022-08-05T05:15:30;1.97;;;1.80;;
7340;SDS011;6870;50.944;6.932;2022-08-05T05:18:19;2.60;;;1.73;;
7340;SDS011;6870;50.944;6.932;2022-08-05T05:20:58;2.30;;;1.43;;
7340;SDS011;6870;50.944;6.932;2022-08-05T05:23:29;2.60;;;1.50;;
7340;SDS011;6870;50.944;6.932;2022-08-05T05:26:18;9.90;;;1.67;;
7340;SDS011;6870;50.944;6.932;2022-08-05T05:28:58;1.60;;;1.50;;
7340;SDS011;6870;50.944;6.932;2022-08-05T05:31:39;1.20;;;1.10;;
7340;SDS011;6870;50.944;6.932;2022-08-05T05:34:11;2.30;;;1.90;;
7340;SDS011;6870;50.944;6.932;2022-08-05T05:36:41;2.23;;;2.03;;
7340;SDS011;6870;50.944;6.932;2022-08-05T05:39:13;1.77;;;1.60;;
7340;SDS011;6870;50.944;6.932;2022-08-05T05:41:44;2.03;;;1.67;;
7340;SDS011;6870;50.944;6.932;2022-08-05T05:44:19;3.80;;;2.20;;
7340;SDS011;6870;50.944;6.932;2022-08-05T05:47:02;3.30;;;1.73;;
7340;SDS011;6870;50.944;6.932;2022-08-05T05:49:46;2.47;;;1.90;;
7340;SDS011;6870;50.944;6.932;2022-08-05T05:52:22;6.03;;;1.77;;
7340;SDS011;6870;50.944;6.932;2022-08-05T05:54:58;2.07;;;1.53;;
7340;SDS011;6870;50.944;6.932;2022-08-05T05:57:32;3.07;;;1.43;;
7340;SDS011;6870;50.944;6.932;2022-08-05T06:00:18;2.27;;;1.73;;
7340;SDS011;6870;50.944;6.932;2022-08-05T06:02:59;8.20;;;7.33;;
7340;SDS011;6870;50.944;6.932;2022-08-05T06:05:48;15.80;;;14.17;;
7340;SDS011;6870;50.944;6.932;2022-08-05T06:08:20;20.93;;;18.70;;
7340;SDS011;6870;50.944;6.932;2022-08-05T06:10:59;21.73;;;19.53;;
7340;SDS011;6870;50.944;6.932;2022-08-05T06:13:29;26.40;;;23.60;;
7340;SDS011;6870;50.944;6.932;2022-08-05T06:16:15;23.57;;;21.07;;
7340;SDS011;6870;50.944;6.932;2022-08-05T06:18:57;20.20;;;18.17;;
7340;SDS011;6870;50.944;6.932;2022-08-05T06:21:27;24.80;;;19.53;;
7340;SDS011;6870;50.944;6.932;2022-08-05T06:24:03;22.13;;;18.67;;
7340;SDS011;6870;50.944;6.932;2022-08-05T06:26:38;21.17;;;18.83;;
7340;SDS011;6870;50.944;6.932;2022-08-05T06:29:18;22.37;;;18.43;;
7340;SDS011;6870;50.944;6.932;2022-08-05T06:32:06;22.33;;;20.03;;
7340;SDS011;6870;50.944;6.932;2022-08-05T06:34:51;20.40;;;18.40;;
7340;SDS011;6870;50.944;6.932;2022-08-05T06:37:22;21.47;;;19.13;;
7340;SDS011;6870;50.944;6.932;2022-08-05T06:40:11;20.30;;;17.93;;
7340;SDS011;6870;50.944;6.932;2022-08-05T06:42:48;27.83;;;18.20;;
7340;SDS011;6870;50.944;6.932;2022-08-05T06:45:18;20.80;;;18.10;;
7340;SDS011;6870;50.944;6.932;2022-08-05T06:48:07;20.80;;;18.57;;
7340;SDS011;6870;50.944;6.932;2022-08-05T06:50:55;24.43;;;20.40;;
7340;SDS011;6870;50.944;6.932;2022-08-05T06:53:25;21.63;;;19.43;;
7340;SDS011;6870;50.944;6.932;2022-08-05T06:55:55;25.57;;;20.00;;
7340;SDS011;6870;50.944;6.932;2022-08-05T06:58:26;24.20;;;20.80;;
7340;SDS011;6870;50.944;6.932;2022-08-05T07:01:03;25.70;;;22.90;;
7340;SDS011;6870;50.944;6.932;2022-08-05T07:03:32;25.13;;;21.90;;
7340;SDS011;6870;50.944;6.932;2022-08-05T07:06:01;23.90;;;21.37;;
7340;SDS011;6870;50.944;6.932;2022-08-05T07:08:40;25.27;;;22.33;;
7340;SDS011;6870;50.944;6.932;2022-08-05T07:11:17;31.77;;;26.47;;
7340;SDS011;6870;50.944;6.932;2022-08-05T07:13:51;28.73;;;23.60;;
7340;SDS011;6870;50.944;6.932;2022-08-05T07:16:53;27.23;;;21.93;;
7340;SDS011;6870;50.944;6.932;2022-08-05T07:19:45;25.33;;;22.30;;
7340;SDS011;6870;50.944;6.932;2022-08-05T07:22:33;28.47;;;22.93;;
7340;SDS011;6870;50.944;6.932;2022-08-05T07:25:03;26.40;;;23.60;;
7340;SDS011;6870;50.944;6.932;2022-08-05T07:27:53;25.07;;;22.50;;
7340;SDS011;6870;50.944;6.932;2022-08-05T07:30:31;23.30;;;20.90;;
7340;SDS011;6870;50.944;6.932;2022-08-05T07:33:05;27.00;;;22.77;;
7340;SDS011;6870;50.944;6.932;2022-08-05T07:35:41;24.60;;;21.70;;
7340;SDS011;6870;50.944;6.932;2022-08-05T07:38:29;26.40;;;21.87;;
7340;SDS011;6870;50.944;6.932;2022-08-05T07:41:09;25.10;;;21.47;;
7340;SDS011;6870;50.944;6.932;2022-08-05T07:44:02;36.43;;;24.00;;
7340;SDS011;6870;50.944;6.932;2022-08-05T07:46:45;31.57;;;26.47;;
7340;SDS011;6870;50.944;6.932;2022-08-05T07:49:15;31.60;;;28.00;;
7340;SDS011;6870;50.944;6.932;2022-08-05T07:51:44;33.57;;;29.90;;
7340;SDS011;6870;50.944;6.932;2022-08-05T07:54:20;41.30;;;33.00;;
7340;SDS011;6870;50.944;6.932;2022-08-05T07:56:57;40.83;;;33.30;;
7340;SDS011;6870;50.944;6.932;2022-08-05T07:59:45;38.83;;;32.90;;
7340;SDS011;6870;50.944;6.932;2022-08-05T08:02:15;38.33;;;33.80;;
7340;SDS011;6870;50.944;6.932;2022-08-05T08:04:44;38.43;;;32.50;;
7340;SDS011;6870;50.944;6.932;2022-08-05T08:07:14;39.20;;;33.60;;
7340;SDS011;6870;50.944;6.932;2022-08-05T08:09:43;39.53;;;30.43;;
7340;SDS011;6870;50.944;6.932;2022-08-05T08:12:13;32.17;;;28.67;;
7340;SDS011;6870;50.944;6.932;2022-08-05T08:14:56;30.30;;;27.27;;
7340;SDS011;6870;50.944;6.932;2022-08-05T08:17:30;31.07;;;27.80;;
7340;SDS011;6870;50.944;6.932;2022-08-05T08:20:00;31.30;;;27.63;;
7340;SDS011;6870;50.944;6.932;2022-08-05T08:22:51;34.33;;;30.63;;
7340;SDS011;6870;50.944;6.932;2022-08-05T08:25:21;35.10;;;31.37;;
7340;SDS011;6870;50.944;6.932;2022-08-05T08:28:10;36.80;;;32.80;;
7340;SDS011;6870;50.944;6.932;2022-08-05T08:30:58;36.23;;;32.53;;
7340;SDS011;6870;50.944;6.932;2022-08-05T08:33:27;36.43;;;32.53;;
7340;SDS011;6870;50.944;6.932;2022-08-05T08:36:03;33.57;;;30.10;;
7340;SDS011;6870;50.944;6.932;2022-08-05T08:38:53;34.67;;;30.93;;
7340;SDS011;6870;50.944;6.932;2022-08-05T08:41:23;34.73;;;31.13;;
7340;SDS011;6870;50.944;6.932;2022-08-05T08:44:13;33.77;;;30.23;;
7340;SDS011;6870;50.944;6.932;2022-08-05T08:47:03;30.50;;;27.47;;
7340;SDS011;6870;50.944;6.932;2022-08-05T08:49:55;34.27;;;30.33;;
7340;SDS011;6870;50.944;6.932;2022-08-05T08:52:45;30.10;;;27.07;;
7340;SDS011;6870;50.944;6.932;2022-08-05T08:55:18;30.33;;;27.23;;
7340;SDS011;6870;50.944;6.932;2022-08-05T08:58:07;29.50;;;26.13;;
7340;SDS011;6870;50.944;6.932;2022-08-05T09:00:38;28.60;;;25.73;;
7340;SDS011;6870;50.944;6.932;2022-08-05T09:03:10;31.13;;;27.47;;
7340;SDS011;6870;50.944;6.932;2022-08-05T09:05:46;31.20;;;27.93;;
7340;SDS011;6870;50.944;6.932;2022-08-05T09:08:34;28.43;;;25.10;;
7340;SDS011;6870;50.944;6.932;2022-08-05T09:11:06;26.60;;;24.00;;
7340;SDS011;6870;50.944;6.932;2022-08-05T09:13:39;25.07;;;21.03;;
7340;SDS011;6870;50.944;6.932;2022-08-05T09:16:28;23.73;;;21.30;;
7340;SDS011;6870;50.944;6.932;2022-08-05T09:18:57;19.93;;;17.90;;
7340;SDS011;6870;50.944;6.932;2022-08-05T09:21:27;20.00;;;17.93;;
7340;SDS011;6870;50.944;6.932;2022-08-05T09:24:15;19.00;;;16.17;;
7340;SDS011;6870;50.944;6.932;2022-08-05T09:26:45;17.40;;;15.53;;
7340;SDS011;6870;50.944;6.932;2022-08-05T09:29:17;15.40;;;13.50;;
7340;SDS011;6870;50.944;6.932;2022-08-05T09:32:02;14.13;;;12.70;;
7340;SDS011;6870;50.944;6.932;2022-08-05T09:34:53;17.67;;;12.27;;
7340;SDS011;6870;50.944;6.932;2022-08-05T09:37:25;14.97;;;13.20;;
7340;SDS011;6870;50.944;6.932;2022-08-05T09:40:27;11.20;;;10.00;;
7340;SDS011;6870;50.944;6.932;2022-08-05T09:42:58;12.13;;;10.63;;
7340;SDS011;6870;50.944;6.932;2022-08-05T09:45:33;11.00;;;10.10;;
7340;SDS011;6870;50.944;6.932;2022-08-05T09:48:27;10.03;;;9.03;;
7340;SDS011;6870;50.944;6.932;2022-08-05T09:50:58;8.67;;;7.97;;
7340;SDS011;6870;50.944;6.932;2022-08-05T09:53:30;9.07;;;8.13;;
7340;SDS011;6870;50.944;6.932;2022-08-05T09:56:24;10.37;;;8.90;;
7340;SDS011;6870;50.944;6.932;2022-08-05T09:58:54;9.40;;;8.60;;
7340;SDS011;6870;50.944;6.932;2022-08-05T10:01:30;10.27;;;9.30;;
7340;SDS011;6870;50.944;6.932;2022-08-05T10:04:01;8.47;;;7.77;;
7340;SDS011;6870;50.944;6.932;2022-08-05T10:06:36;9.70;;;8.80;;
7340;SDS011;6870;50.944;6.932;2022-08-05T10:09:11;12.83;;;7.50;;
7340;SDS011;6870;50.944;6.932;2022-08-05T10:11:53;14.70;;;8.73;;
7340;SDS011;6870;50.944;6.932;2022-08-05T10:15:02;9.10;;;8.40;;
7340;SDS011;6870;50.944;6.932;2022-08-05T10:18:02;9.23;;;8.40;;
7340;SDS011;6870;50.944;6.932;2022-08-05T10:20:38;8.43;;;7.47;;
7340;SDS011;6870;50.944;6.932;2022-08-05T10:23:15;8.70;;;7.73;;
7340;SDS011;6870;50.944;6.932;2022-08-05T10:26:07;8.33;;;7.63;;
7340;SDS011;6870;50.944;6.932;2022-08-05T10:28:40;8.43;;;7.00;;
7340;SDS011;6870;50.944;6.932;2022-08-05T10:31:11;13.03;;;7.10;;
7340;SDS011;6870;50.944;6.932;2022-08-05T10:34:01;8.47;;;7.37;;
7340;SDS011;6870;50.944;6.932;2022-08-05T10:36:33;7.40;;;6.70;;
7340;SDS011;6870;50.944;6.932;2022-08-05T10:39:04;7.03;;;6.37;;
7340;SDS011;6870;50.944;6.932;2022-08-05T10:41:45;7.50;;;6.90;;
7340;SDS011;6870;50.944;6.932;2022-08-05T10:44:26;10.43;;;6.10;;
7340;SDS011;6870;50.944;6.932;2022-08-05T10:46:56;8.97;;;7.00;;
7340;SDS011;6870;50.944;6.932;2022-08-05T10:49:24;7.47;;;6.77;;
7340;SDS011;6870;50.944;6.932;2022-08-05T10:51:59;7.47;;;6.73;;
7340;SDS011;6870;50.944;6.932;2022-08-05T10:54:45;7.00;;;6.40;;
7340;SDS011;6870;50.944;6.932;2022-08-05T10:57:26;8.57;;;6.73;;
7340;SDS011;6870;50.944;6.932;2022-08-05T11:00:05;7.43;;;5.93;;
7340;SDS011;6870;50.944;6.932;2022-08-05T11:06:07;7.17;;;4.53;;
7340;SDS011;6870;50.944;6.932;2022-08-05T11:15:21;5.10;;;3.57;;
7340;SDS011;6870;50.944;6.932;2022-08-05T11:18:22;6.43;;;4.10;;
7340;SDS011;6870;50.944;6.932;2022-08-05T11:20:55;4.70;;;3.47;;
7340;SDS011;6870;50.944;6.932;2022-08-05T11:23:34;6.67;;;4.17;;
7340;SDS011;6870;50.944;6.932;2022-08-05T11:26:28;5.53;;;3.83;;
7340;SDS011;6870;50.944;6.932;2022-08-05T11:29:01;5.53;;;4.87;;
7340;SDS011;6870;50.944;6.932;2022-08-05T11:31:40;4.00;;;3.60;;
7340;SDS011;6870;50.944;6.932;2022-08-05T11:34:35;4.80;;;3.97;;
7340;SDS011;6870;50.944;6.932;2022-08-05T11:40:59;6.37;;;4.70;;
7340;SDS011;6870;50.944;6.932;2022-08-05T11:43:53;6.13;;;3.67;;
7340;SDS011;6870;50.944;6.932;2022-08-05T11:46:34;5.70;;;3.67;;
7340;SDS011;6870;50.944;6.932;2022-08-05T11:49:25;6.27;;;3.17;;
7340;SDS011;6870;50.944;6.932;2022-08-05T11:51:53;4.20;;;2.97;;
7340;SDS011;6870;50.944;6.932;2022-08-05T11:54:23;4.30;;;2.57;;
7340;SDS011;6870;50.944;6.932;2022-08-05T11:57:00;4.23;;;2.90;;
7340;SDS011;6870;50.944;6.932;2022-08-05T11:59:49;3.83;;;2.10;;
7340;SDS011;6870;50.944;6.932;2022-08-05T12:02:24;7.47;;;2.70;;
7340;SDS011;6870;50.944;6.932;2022-08-05T12:04:59;4.17;;;2.77;;
7340;SDS011;6870;50.944;6.932;2022-08-05T12:07:43;6.30;;;2.33;;
7340;SDS011;6870;50.944;6.932;2022-08-05T12:10:33;3.10;;;2.60;;
7340;SDS011;6870;50.944;6.932;2022-08-05T12:13:15;2.43;;;2.17;;
7340;SDS011;6870;50.944;6.932;2022-08-05T12:16:04;3.17;;;2.43;;
7340;SDS011;6870;50.944;6.932;2022-08-05T12:18:42;4.93;;;2.63;;
7340;SDS011;6870;50.944;6.932;2022-08-05T12:21:19;5.17;;;3.10;;
7340;SDS011;6870;50.944;6.932;2022-08-05T12:23:53;6.27;;;3.77;;
7340;SDS011;6870;50.944;6.932;2022-08-05T12:26:30;3.60;;;2.47;;
7340;SDS011;6870;50.944;6.932;2022-08-05T12:28:59;2.07;;;1.93;;
7340;SDS011;6870;50.944;6.932;2022-08-05T12:31:30;4.20;;;2.30;;
7340;SDS011;6870;50.944;6.932;2022-08-05T12:34:17;3.53;;;2.60;;
7340;SDS011;6870;50.944;6.932;2022-08-05T12:36:49;3.63;;;2.90;;
7340;SDS011;6870;50.944;6.932;2022-08-05T12:39:19;3.90;;;2.50;;
7340;SDS011;6870;50.944;6.932;2022-08-05T12:41:56;2.57;;;2.20;;
7340;SDS011;6870;50.944;6.932;2022-08-05T12:44:25;3.10;;;2.40;;
7340;SDS011;6870;50.944;6.932;2022-08-05T12:46:59;3.03;;;2.20;;
7340;SDS011;6870;50.944;6.932;2022-08-05T12:49:40;2.87;;;2.13;;
7340;SDS011;6870;50.944;6.932;2022-08-05T12:52:32;5.30;;;2.60;;
7340;SDS011;6870;50.944;6.932;2022-08-05T12:55:17;3.90;;;2.60;;
7340;SDS011;6870;50.944;6.932;2022-08-05T12:57:52;6.00;;;3.03;;
7340;SDS011;6870;50.944;6.932;2022-08-05T13:00:42;5.63;;;3.30;;
7340;SDS011;6870;50.944;6.932;2022-08-05T13:03:33;3.47;;;3.10;;
7340;SDS011;6870;50.944;6.932;2022-08-05T13:06:12;6.50;;;3.33;;
7340;SDS011;6870;50.944;6.932;2022-08-05T13:08:42;6.67;;;3.10;;
7340;SDS011;6870;50.944;6.932;2022-08-05T13:11:18;3.67;;;3.40;;
7340;SDS011;6870;50.944;6.932;2022-08-05T13:14:15;3.97;;;3.60;;
7340;SDS011;6870;50.944;6.932;2022-08-05T13:16:52;5.13;;;3.73;;
7340;SDS011;6870;50.944;6.932;2022-08-05T13:19:25;8.77;;;4.03;;
7340;SDS011;6870;50.944;6.932;2022-08-05T13:22:16;4.90;;;4.00;;
7340;SDS011;6870;50.944;6.932;2022-08-05T13:24:55;4.07;;;3.67;;
7340;SDS011;6870;50.944;6.932;2022-08-05T13:27:32;4.20;;;3.40;;
7340;SDS011;6870;50.944;6.932;2022-08-05T13:30:05;4.30;;;3.30;;
7340;SDS011;6870;50.944;6.932;2022-08-05T13:32:56;6.40;;;3.93;;
7340;SDS011;6870;50.944;6.932;2022-08-05T13:35:27;5.87;;;4.47;;
7340;SDS011;6870;50.944;6.932;2022-08-05T13:38:10;4.53;;;3.63;;
7340;SDS011;6870;50.944;6.932;2022-08-05T13:40:58;5.57;;;3.80;;
7340;SDS011;6870;50.944;6.932;2022-08-05T13:43:27;9.00;;;5.03;;
7340;SDS011;6870;50.944;6.932;2022-08-05T13:46:11;5.67;;;4.60;;
7340;SDS011;6870;50.944;6.932;2022-08-05T13:48:55;4.90;;;4.47;;
7340;SDS011;6870;50.944;6.932;2022-08-05T13:51:30;5.37;;;4.87;;
7340;SDS011;6870;50.944;6.932;2022-08-05T13:54:07;5.20;;;4.67;;
7340;SDS011;6870;50.944;6.932;2022-08-05T13:56:39;9.93;;;5.43;;
7340;SDS011;6870;50.944;6.932;2022-08-05T13:59:16;11.43;;;5.10;;
7340;SDS011;6870;50.944;6.932;2022-08-05T14:01:51;7.17;;;5.23;;
7340;SDS011;6870;50.944;6.932;2022-08-05T14:04:24;5.80;;;4.83;;
7340;SDS011;6870;50.944;6.932;2022-08-05T14:07:16;6.60;;;4.30;;
7340;SDS011;6870;50.944;6.932;2022-08-05T14:10:08;8.80;;;4.40;;
7340;SDS011;6870;50.944;6.932;2022-08-05T14:12:53;6.77;;;4.60;;
7340;SDS011;6870;50.944;6.932;2022-08-05T14:15:22;7.70;;;4.87;;
7340;SDS011;6870;50.944;6.932;2022-08-05T14:18:11;4.70;;;4.30;;
7340;SDS011;6870;50.944;6.932;2022-08-05T14:20:44;5.00;;;4.00;;
7340;SDS011;6870;50.944;6.932;2022-08-05T14:23:13;4.67;;;4.27;;
7340;SDS011;6870;50.944;6.932;2022-08-05T14:25:52;6.97;;;3.60;;
7340;SDS011;6870;50.944;6.932;2022-08-05T14:28:24;5.20;;;3.40;;
7340;SDS011;6870;50.944;6.932;2022-08-05T14:30:54;4.30;;;3.83;;
7340;SDS011;6870;50.944;6.932;2022-08-05T14:33:22;9.10;;;4.37;;
7340;SDS011;6870;50.944;6.932;2022-08-05T14:35:50;8.63;;;4.40;;
7340;SDS011;6870;50.944;6.932;2022-08-05T14:38:20;4.40;;;4.00;;
7340;SDS011;6870;50.944;6.932;2022-08-05T14:41:00;7.13;;;3.70;;
7340;SDS011;6870;50.944;6.932;2022-08-05T14:43:33;5.93;;;3.67;;
7340;SDS011;6870;50.944;6.932;2022-08-05T14:46:23;7.90;;;4.10;;
7340;SDS011;6870;50.944;6.932;2022-08-05T14:48:55;19.23;;;4.40;;
7340;SDS011;6870;50.944;6.932;2022-08-05T14:51:33;4.47;;;3.10;;
7340;SDS011;6870;50.944;6.932;2022-08-05T14:54:03;3.73;;;2.30;;
7340;SDS011;6870;50.944;6.932;2022-08-05T14:56:53;4.90;;;2.17;;
7340;SDS011;6870;50.944;6.932;2022-08-05T14:59:22;9.00;;;2.23;;
7340;SDS011;6870;50.944;6.932;2022-08-05T15:01:55;4.87;;;2.30;;
7340;SDS011;6870;50.944;6.932;2022-08-05T15:04:25;2.37;;;2.17;;
7340;SDS011;6870;50.944;6.932;2022-08-05T15:06:54;12.90;;;3.87;;
7340;SDS011;6870;50.944;6.932;2022-08-05T15:09:23;9.63;;;3.20;;
7340;SDS011;6870;50.944;6.932;2022-08-05T15:12:12;6.50;;;2.50;;
7340;SDS011;6870;50.944;6.932;2022-08-05T15:14:42;6.43;;;3.30;;
7340;SDS011;6870;50.944;6.932;2022-08-05T15:17:15;15.57;;;3.70;;
7340;SDS011;6870;50.944;6.932;2022-08-05T15:20:05;9.33;;;3.67;;
7340;SDS011;6870;50.944;6.932;2022-08-05T15:22:45;6.57;;;3.00;;
7340;SDS011;6870;50.944;6.932;2022-08-05T15:25:20;6.17;;;3.33;;
7340;SDS011;6870;50.944;6.932;2022-08-05T15:28:10;6.63;;;3.10;;
7340;SDS011;6870;50.944;6.932;2022-08-05T15:30:41;9.00;;;3.00;;
7340;SDS011;6870;50.944;6.932;2022-08-05T15:33:11;14.23;;;3.70;;
7340;SDS011;6870;50.944;6.932;2022-08-05T15:36:00;4.63;;;3.03;;
7340;SDS011;6870;50.944;6.932;2022-08-05T15:38:30;4.13;;;3.37;;
7340;SDS011;6870;50.944;6.932;2022-08-05T15:41:07;4.83;;;2.80;;
7340;SDS011;6870;50.944;6.932;2022-08-05T15:43:50;10.33;;;3.20;;
7340;SDS011;6870;50.944;6.932;2022-08-05T15:46:20;8.80;;;2.70;;
7340;SDS011;6870;50.944;6.932;2022-08-05T15:48:50;4.63;;;2.50;;
7340;SDS011;6870;50.944;6.932;2022-08-05T15:51:26;7.93;;;2.77;;
7340;SDS011;6870;50.944;6.932;2022-08-05T15:54:15;3.60;;;2.60;;
7340;SDS011;6870;50.944;6.932;2022-08-05T15:56:43;4.60;;;2.90;;
7340;SDS011;6870;50.944;6.932;2022-08-05T15:59:13;6.07;;;2.70;;
7340;SDS011;6870;50.944;6.932;2022-08-05T16:01:47;4.33;;;3.10;;
7340;SDS011;6870;50.944;6.932;2022-08-05T16:04:18;5.77;;;2.70;;
7340;SDS011;6870;50.944;6.932;2022-08-05T16:06:51;4.60;;;2.83;;
7340;SDS011;6870;50.944;6.932;2022-08-05T16:09:21;4.27;;;2.70;;
7340;SDS011;6870;50.944;6.932;2022-08-05T16:11:49;5.93;;;2.83;;
7340;SDS011;6870;50.944;6.932;2022-08-05T16:14:20;6.03;;;2.50;;
7340;SDS011;6870;50.944;6.932;2022-08-05T16:16:49;5.17;;;3.40;;
7340;SDS011;6870;50.944;6.932;2022-08-05T16:19:17;4.90;;;3.10;;
7340;SDS011;6870;50.944;6.932;2022-08-05T16:22:06;2.90;;;2.50;;
7340;SDS011;6870;50.944;6.932;2022-08-05T16:24:36;4.17;;;3.10;;
7340;SDS011;6870;50.944;6.932;2022-08-05T16:27:16;3.33;;;2.57;;